createdAt,value
2018-10-04T00:02:21.927Z,0.10
2018-10-04T00:04:49.467Z,0.10
2018-10-04T00:07:17.174Z,0.30
2018-10-04T00:09:44.737Z,0.20
2018-10-04T00:12:12.220Z,0.20
2018-10-04T00:14:39.928Z,0.20
2018-10-04T00:17:07.503Z,0.20
2018-10-04T00:19:35.112Z,0.10
2018-10-04T00:22:02.704Z,0.20
2018-10-04T00:24:30.275Z,0.10
2018-10-04T00:26:57.810Z,0.17
2018-10-04T00:29:25.523Z,0.13
2018-10-04T00:31:53.048Z,0.20
2018-10-04T00:34:20.622Z,0.20
2018-10-04T00:36:48.167Z,0.20
2018-10-04T00:39:15.651Z,0.17
2018-10-04T00:41:43.151Z,0.20
2018-10-04T00:44:10.956Z,0.20
2018-10-04T00:46:38.527Z,0.20
2018-10-04T00:49:06.087Z,0.30
2018-10-04T00:51:34.118Z,0.10
2018-10-04T00:54:01.561Z,0.10
2018-10-04T00:56:29.091Z,0.10
2018-10-04T00:58:56.795Z,0.10
2018-10-04T01:01:24.950Z,0.20
2018-10-04T01:03:52.547Z,0.20
2018-10-04T01:06:20.368Z,0.13
2018-10-04T01:08:47.829Z,0.20
2018-10-04T01:11:15.343Z,0.20
2018-10-04T01:13:43.065Z,0.20
2018-10-04T01:16:10.571Z,0.20
2018-10-04T01:18:54.504Z,0.20
2018-10-04T01:21:22.431Z,0.07
2018-10-04T01:23:50.207Z,0.10
2018-10-04T01:26:17.943Z,0.20
2018-10-04T01:28:45.585Z,0.20
2018-10-04T01:31:13.023Z,0.10
2018-10-04T01:33:40.743Z,0.10
2018-10-04T01:36:08.231Z,0.17
2018-10-04T01:38:35.962Z,0.20
2018-10-04T01:41:03.732Z,0.20
2018-10-04T01:43:31.354Z,0.37
2018-10-04T01:45:58.843Z,0.20
2018-10-04T01:48:26.653Z,0.23
2018-10-04T01:50:54.167Z,0.20
2018-10-04T01:53:21.921Z,0.17
2018-10-04T01:55:49.650Z,0.10
2018-10-04T01:58:17.114Z,0.20
2018-10-04T02:00:44.541Z,0.20
2018-10-04T02:03:12.217Z,0.20
2018-10-04T02:05:39.674Z,0.20
2018-10-04T02:10:34.311Z,0.30
2018-10-04T02:27:43.697Z,0.17
2018-10-04T02:30:11.194Z,0.10
2018-10-04T02:32:38.927Z,0.10
2018-10-04T02:35:06.458Z,0.17
2018-10-04T02:37:33.952Z,0.10
2018-10-04T02:40:01.677Z,0.20
2018-10-04T02:42:29.201Z,0.20
2018-10-04T02:44:56.721Z,0.10
2018-10-04T02:47:24.386Z,0.40
2018-10-04T02:49:51.899Z,0.27
2018-10-04T02:52:19.370Z,0.30
2018-10-04T02:54:53.065Z,0.20
2018-10-04T02:57:20.766Z,0.40
2018-10-04T02:59:48.325Z,0.30
2018-10-04T03:02:15.853Z,0.30
2018-10-04T03:04:43.598Z,0.20
2018-10-04T03:14:32.020Z,0.20
2018-10-04T03:51:18.165Z,1.00
2018-10-04T03:53:45.644Z,0.50
2018-10-04T03:56:13.668Z,0.50
2018-10-04T03:58:41.249Z,0.50
2018-10-04T04:01:08.765Z,0.30
2018-10-04T04:03:37.065Z,0.30
2018-10-04T04:06:04.590Z,0.30
2018-10-04T04:08:32.094Z,0.20
2018-10-04T04:11:00.043Z,0.40
2018-10-04T04:13:27.500Z,0.30
2018-10-04T04:15:54.937Z,0.40
2018-10-04T04:20:49.712Z,0.30
2018-10-04T04:23:17.212Z,0.30
2018-10-04T04:28:11.760Z,0.30
2018-10-04T04:30:39.261Z,0.40
2018-10-04T04:33:06.858Z,0.30
2018-10-04T04:35:34.458Z,0.37
2018-10-04T04:38:01.947Z,0.40
2018-10-04T04:40:29.571Z,0.50
2018-10-04T04:42:57.065Z,0.50
2018-10-04T04:45:24.589Z,0.65
2018-10-04T04:47:52.430Z,0.40
2018-10-04T04:50:19.950Z,0.50
2018-10-04T04:52:47.633Z,0.45
2018-10-04T04:55:19.413Z,0.47
2018-10-04T04:57:47.415Z,0.50
2018-10-04T05:00:14.965Z,0.40
2018-10-04T05:02:42.605Z,0.47
2018-10-04T05:05:10.277Z,0.63
2018-10-04T05:07:37.773Z,0.40
2018-10-04T05:10:05.386Z,0.33
2018-10-04T05:12:33.102Z,0.30
2018-10-04T05:15:00.619Z,0.37
2018-10-04T05:17:28.336Z,0.40
2018-10-04T05:19:55.896Z,0.60
2018-10-04T05:22:23.733Z,0.40
2018-10-04T05:24:51.392Z,0.40
2018-10-04T05:27:18.863Z,0.60
2018-10-04T05:29:46.301Z,0.57
2018-10-04T05:32:14.124Z,0.53
2018-10-04T05:34:41.596Z,0.70
2018-10-04T05:37:09.055Z,0.50
2018-10-04T05:39:36.889Z,0.53
2018-10-04T05:42:04.615Z,0.50
2018-10-04T05:44:32.093Z,0.70
2018-10-04T05:46:59.759Z,0.87
2018-10-04T05:49:27.284Z,0.60
2018-10-04T05:51:54.828Z,0.50
2018-10-04T05:54:22.567Z,0.80
2018-10-04T05:56:50.199Z,1.00
2018-10-04T05:59:17.967Z,0.60
2018-10-04T06:01:45.665Z,0.90
2018-10-04T06:04:13.099Z,0.70
2018-10-04T06:06:40.639Z,1.00
2018-10-04T06:09:08.295Z,0.70
2018-10-04T06:11:35.829Z,0.83
2018-10-04T06:14:03.328Z,0.70
2018-10-04T06:16:31.083Z,0.77
2018-10-04T06:18:58.554Z,0.70
2018-10-04T06:21:26.124Z,0.70
2018-10-04T06:23:53.760Z,0.50
2018-10-04T06:26:21.293Z,0.80
2018-10-04T06:28:48.745Z,0.60
2018-10-04T06:31:16.396Z,0.50
2018-10-04T06:33:43.901Z,0.60
2018-10-04T06:36:11.350Z,0.57
2018-10-04T06:38:39.041Z,0.80
2018-10-04T06:41:06.590Z,0.70
2018-10-04T06:43:34.124Z,0.57
2018-10-04T06:46:01.945Z,0.80
2018-10-04T06:48:29.459Z,0.60
2018-10-04T06:50:56.971Z,0.97
2018-10-04T06:53:24.599Z,0.60
2018-10-04T06:55:52.174Z,0.83
2018-10-04T06:58:19.673Z,0.60
2018-10-04T07:00:47.440Z,0.70
2018-10-04T07:03:14.957Z,1.03
2018-10-04T07:05:42.483Z,0.70
2018-10-04T07:08:10.138Z,1.10
2018-10-04T07:10:37.772Z,0.70
2018-10-04T07:13:05.329Z,0.97
2018-10-04T07:15:33.117Z,0.70
2018-10-04T07:18:00.604Z,0.80
2018-10-04T07:20:28.277Z,0.87
2018-10-04T07:22:55.966Z,0.70
2018-10-04T07:25:23.458Z,0.60
2018-10-04T07:27:50.972Z,0.60
2018-10-04T07:30:18.691Z,0.57
2018-10-04T07:32:46.174Z,0.50
2018-10-04T07:35:13.735Z,0.77
2018-10-04T07:37:41.526Z,0.30
2018-10-04T07:40:09.048Z,0.50
2018-10-04T07:42:36.610Z,0.40
2018-10-04T07:45:04.383Z,0.60
2018-10-04T07:47:31.849Z,0.70
2018-10-04T07:49:59.388Z,0.50
2018-10-04T07:57:20.857Z,0.53
2018-10-04T07:59:48.603Z,0.50
2018-10-04T08:02:16.406Z,0.45
2018-10-04T08:07:11.333Z,0.40
2018-10-04T08:09:38.858Z,0.53
2018-10-04T08:12:06.501Z,0.40
2018-10-04T08:14:34.235Z,0.47
2018-10-04T08:17:01.721Z,0.30
2018-10-04T08:19:29.187Z,0.20
2018-10-04T08:21:56.849Z,0.50
2018-10-04T08:24:24.378Z,0.40
2018-10-04T08:26:51.831Z,0.20
2018-10-04T08:29:19.606Z,0.30
2018-10-04T08:31:47.116Z,0.43
2018-10-04T08:34:14.696Z,0.40
2018-10-04T08:36:42.458Z,0.40
2018-10-04T08:39:10.203Z,0.30
2018-10-04T08:41:38.298Z,0.40
2018-10-04T08:44:06.272Z,0.40
2018-10-04T08:46:33.752Z,0.50
2018-10-04T08:49:01.227Z,0.30
2018-10-04T08:51:34.202Z,0.30
2018-10-04T08:54:01.786Z,0.50
2018-10-04T08:56:29.338Z,0.50
2018-10-04T08:58:56.861Z,0.40
2018-10-04T09:01:24.673Z,0.40
2018-10-04T09:03:58.037Z,0.30
2018-10-04T09:06:26.026Z,0.33
2018-10-04T09:08:53.499Z,0.67
2018-10-04T09:11:21.143Z,0.40
2018-10-04T09:13:48.889Z,0.40
2018-10-04T09:16:16.542Z,0.40
2018-10-04T09:18:44.404Z,0.50
2018-10-04T09:21:12.012Z,0.20
2018-10-04T09:23:39.542Z,0.20
2018-10-04T09:26:07.080Z,0.40
2018-10-04T09:28:34.951Z,0.30
2018-10-04T09:31:07.968Z,0.33
2018-10-04T09:33:35.636Z,0.37
2018-10-04T09:36:03.242Z,0.30
2018-10-04T09:38:30.754Z,0.20
2018-10-04T09:40:58.630Z,0.40
2018-10-04T09:43:26.136Z,0.27
2018-10-04T09:45:53.720Z,0.30
2018-10-04T09:48:21.729Z,0.37
2018-10-04T09:50:49.325Z,0.30
2018-10-04T09:53:16.905Z,0.20
2018-10-04T09:55:50.215Z,0.10
2018-10-04T09:58:17.938Z,0.20
2018-10-04T10:00:50.887Z,0.30
2018-10-04T10:03:18.722Z,0.10
2018-10-04T10:05:46.331Z,0.10
2018-10-04T10:08:13.842Z,0.20
2018-10-04T10:10:41.550Z,0.20
2018-10-04T10:13:09.050Z,0.10
2018-10-04T10:15:36.525Z,0.20
2018-10-04T10:18:04.201Z,0.10
2018-10-04T10:20:31.633Z,0.20
2018-10-04T10:22:59.140Z,0.00
2018-10-04T10:25:27.069Z,0.10
2018-10-04T10:27:54.550Z,0.10
2018-10-04T10:30:22.108Z,0.13
2018-10-04T10:32:49.883Z,0.13
2018-10-04T10:35:17.422Z,0.20
2018-10-04T10:37:44.853Z,0.13
2018-10-04T10:40:12.864Z,0.10
2018-10-04T10:42:40.373Z,0.13
2018-10-04T10:45:07.862Z,0.17
2018-10-04T10:47:35.644Z,0.10
2018-10-04T10:50:03.252Z,0.03
2018-10-04T10:52:30.734Z,0.00
2018-10-04T10:54:58.415Z,0.13
2018-10-04T10:57:25.974Z,0.20
2018-10-04T10:59:53.394Z,0.20
2018-10-04T11:02:20.966Z,0.10
2018-10-04T11:04:48.420Z,0.10
2018-10-04T11:07:16.153Z,0.20
2018-10-04T11:09:43.704Z,0.00
2018-10-04T11:12:11.218Z,0.00
2018-10-04T11:14:38.764Z,0.10
2018-10-04T11:17:06.554Z,0.10
2018-10-04T11:19:34.083Z,0.00
2018-10-04T11:22:01.600Z,0.10
2018-10-04T11:24:29.561Z,0.07
2018-10-04T11:26:57.048Z,0.20
2018-10-04T11:29:24.539Z,0.10
2018-10-04T11:31:52.173Z,0.20
2018-10-04T11:34:19.716Z,0.10
2018-10-04T11:36:47.457Z,0.30
2018-10-04T11:44:13.212Z,0.20
2018-10-04T11:46:40.988Z,0.10
2018-10-04T11:49:08.998Z,0.47
2018-10-04T11:51:36.446Z,0.10
2018-10-04T11:54:04.253Z,0.40
2018-10-04T11:56:31.763Z,0.17
2018-10-04T11:58:59.260Z,0.20
2018-10-04T12:01:27.070Z,0.17
2018-10-04T12:03:54.742Z,0.23
2018-10-04T12:06:22.238Z,0.20
2018-10-04T12:08:50.159Z,0.33
2018-10-04T12:11:17.655Z,0.20
2018-10-04T12:13:45.162Z,0.30
2018-10-04T12:16:12.991Z,0.10
2018-10-04T12:18:40.505Z,0.17
2018-10-04T12:21:07.982Z,0.20
2018-10-04T12:23:35.674Z,0.30
2018-10-04T12:26:03.203Z,0.30
2018-10-04T12:28:30.681Z,0.20
2018-10-04T12:30:58.459Z,0.20
2018-10-04T12:33:25.899Z,0.20
2018-10-04T12:35:53.382Z,0.20
2018-10-04T12:38:21.506Z,0.20
2018-10-04T12:40:49.616Z,0.20
2018-10-04T12:43:17.743Z,0.10
2018-10-04T12:45:45.461Z,0.10
2018-10-04T12:48:12.898Z,0.20
2018-10-04T12:58:01.386Z,0.10
2018-10-04T13:00:29.157Z,0.20
2018-10-04T13:02:56.626Z,0.20
2018-10-04T13:05:24.117Z,0.20
2018-10-04T13:07:51.744Z,0.10
2018-10-04T13:10:19.507Z,0.10
2018-10-04T13:12:46.982Z,0.20
2018-10-04T13:15:14.976Z,0.20
2018-10-04T13:17:42.487Z,0.10
2018-10-04T13:20:10.006Z,0.17
2018-10-04T13:22:37.590Z,0.13
2018-10-04T13:25:05.202Z,0.17
2018-10-04T13:27:32.744Z,0.10
2018-10-04T13:30:00.559Z,0.10
2018-10-04T13:32:28.120Z,0.13
2018-10-04T13:39:49.574Z,0.00
2018-10-04T13:42:17.073Z,0.10
2018-10-04T13:44:44.674Z,0.20
2018-10-04T13:47:12.108Z,0.10
2018-10-04T13:49:39.678Z,0.10
2018-10-04T13:57:01.260Z,0.30
2018-10-04T13:59:28.964Z,0.20
2018-10-04T14:01:56.412Z,0.10
2018-10-04T14:04:23.870Z,0.30
2018-10-04T14:06:51.651Z,0.20
2018-10-04T14:09:19.180Z,0.30
2018-10-04T14:14:13.893Z,0.20
2018-10-04T14:21:35.574Z,0.10
2018-10-04T14:26:29.922Z,0.10
2018-10-04T14:28:57.720Z,0.20
2018-10-04T14:33:52.159Z,0.20
2018-10-04T14:43:41.156Z,0.10
2018-10-04T14:46:08.688Z,0.20
2018-10-04T14:48:36.174Z,0.20
2018-10-04T14:51:03.934Z,0.20
2018-10-04T14:53:31.565Z,0.27
2018-10-04T14:58:26.041Z,0.20
2018-10-04T15:00:53.525Z,0.40
2018-10-04T15:03:21.075Z,0.30
2018-10-04T15:05:48.748Z,0.20
2018-10-04T15:08:16.305Z,0.47
2018-10-04T15:10:43.763Z,0.60
2018-10-04T15:13:11.373Z,0.30
2018-10-04T15:15:38.905Z,0.60
2018-10-04T15:18:06.497Z,0.70
2018-10-04T15:20:34.173Z,0.57
2018-10-04T15:23:01.698Z,0.67
2018-10-04T15:25:29.234Z,0.50
2018-10-04T15:27:56.786Z,0.70
2018-10-04T15:30:24.292Z,0.53
2018-10-04T15:32:51.849Z,0.50
2018-10-04T15:35:19.891Z,0.70
2018-10-04T15:37:47.506Z,0.60
2018-10-04T15:40:14.919Z,0.50
2018-10-04T15:42:42.543Z,0.70
2018-10-04T15:45:10.112Z,1.00
2018-10-04T15:47:37.645Z,0.80
2018-10-04T15:52:32.286Z,0.70
2018-10-04T15:54:59.827Z,0.57
2018-10-04T15:57:27.488Z,0.57
2018-10-04T15:59:54.987Z,0.40
2018-10-04T16:02:22.536Z,0.60
2018-10-04T16:04:50.145Z,0.70
2018-10-04T16:07:17.660Z,0.80
2018-10-04T16:09:45.199Z,0.53
2018-10-04T16:12:12.966Z,1.10
2018-10-04T16:14:40.676Z,0.77
2018-10-04T16:17:08.254Z,0.60
2018-10-04T16:19:35.823Z,0.70
2018-10-04T16:22:03.346Z,0.83
2018-10-04T16:24:30.874Z,0.77
2018-10-04T16:26:58.397Z,0.80
2018-10-04T16:29:25.891Z,0.80
2018-10-04T16:31:53.482Z,0.80
2018-10-04T16:34:21.164Z,0.50
2018-10-04T16:36:48.666Z,0.50
2018-10-04T16:39:16.181Z,0.60
2018-10-04T16:41:43.949Z,0.70
2018-10-04T16:44:11.444Z,0.63
2018-10-04T16:46:38.932Z,0.70
2018-10-04T16:49:06.705Z,0.77
2018-10-04T17:16:04.406Z,1.40
2018-10-04T17:18:31.911Z,1.13
2018-10-04T17:20:59.367Z,0.80
2018-10-04T17:23:26.851Z,1.30
2018-10-04T17:25:54.646Z,0.90
2018-10-04T17:28:22.108Z,1.07
2018-10-04T17:30:49.659Z,0.93
2018-10-04T17:33:17.252Z,1.03
2018-10-04T17:35:44.904Z,0.90
2018-10-04T17:38:12.366Z,1.00
2018-10-04T17:40:40.023Z,0.90
2018-10-04T17:43:07.535Z,1.03
2018-10-04T18:07:38.178Z,1.03
2018-10-04T18:10:05.864Z,1.20
2018-10-04T18:12:33.367Z,1.17
2018-10-04T18:15:00.914Z,1.20
2018-10-04T18:17:28.579Z,0.90
2018-10-04T18:19:56.077Z,1.00
2018-10-04T18:41:59.608Z,1.20
2018-10-04T19:26:06.923Z,2.10
2018-10-04T19:28:34.435Z,2.60
2018-10-04T19:31:02.244Z,2.10
2018-10-04T19:33:29.733Z,2.33
2018-10-04T19:35:57.336Z,1.90
2018-10-04T19:38:25.010Z,1.70
2018-10-04T19:40:52.605Z,1.97
2018-10-04T19:43:20.123Z,2.23
2018-10-04T19:45:47.867Z,2.20
2018-10-04T19:48:15.355Z,2.60
2018-10-04T19:58:03.721Z,1.70
2018-10-04T20:07:52.619Z,1.40
2018-10-04T20:10:20.213Z,1.30
2018-10-04T20:12:47.703Z,1.30
2018-10-04T20:15:15.421Z,1.33
2018-10-04T20:17:42.992Z,1.25
2018-10-04T20:20:11.051Z,1.70
2018-10-04T20:27:32.577Z,1.40
2018-10-04T20:30:00.498Z,1.40
2018-10-04T20:32:27.963Z,1.50
2018-10-04T20:34:55.555Z,1.77
2018-10-04T20:37:23.229Z,1.70
2018-10-04T20:39:50.677Z,1.50
2018-10-04T20:42:18.166Z,1.93
2018-10-04T20:44:45.842Z,1.67
2018-10-04T20:47:14.458Z,2.00
2018-10-04T21:01:56.525Z,2.00
2018-10-04T21:04:23.997Z,2.70
2018-10-04T21:06:51.662Z,2.90
2018-10-04T21:09:19.157Z,2.60
2018-10-04T21:11:46.640Z,3.03
2018-10-04T21:14:14.266Z,2.93
2018-10-04T21:16:41.736Z,2.43
2018-10-04T21:19:09.219Z,2.00
2018-10-04T21:21:36.846Z,2.57
2018-10-04T21:24:04.300Z,2.60
2018-10-04T21:26:31.825Z,2.70
2018-10-04T21:28:59.380Z,2.97
2018-10-04T21:31:26.827Z,2.70
2018-10-04T21:33:54.359Z,2.57
2018-10-04T21:36:21.979Z,2.83
2018-10-04T21:38:49.541Z,2.37
2018-10-04T21:41:17.041Z,2.77
2018-10-04T21:43:44.844Z,1.80
2018-10-04T21:46:12.393Z,2.33
2018-10-04T21:48:39.889Z,2.13
2018-10-04T21:51:07.653Z,2.03
2018-10-04T21:53:35.243Z,2.10
2018-10-04T21:56:02.829Z,2.10
2018-10-04T21:58:30.582Z,1.70
2018-10-04T22:00:58.763Z,1.33
2018-10-04T22:03:27.211Z,1.60
2018-10-04T22:05:54.990Z,1.60
2018-10-04T22:08:22.885Z,1.60
2018-10-04T22:10:51.087Z,1.53
2018-10-04T22:13:19.005Z,1.50
2018-10-04T22:15:46.669Z,1.30
2018-10-04T22:18:14.448Z,1.57
2018-10-04T22:20:42.233Z,1.07
2018-10-04T22:23:10.053Z,0.90
2018-10-04T22:25:37.779Z,0.80
2018-10-04T22:28:05.651Z,1.00
2018-10-04T22:30:33.308Z,1.00
2018-10-04T22:33:01.055Z,0.87
2018-10-04T22:35:28.969Z,0.63
2018-10-04T22:52:39.673Z,0.30
2018-10-04T22:55:07.444Z,0.33
2018-10-04T22:57:35.279Z,0.27
2018-10-04T23:00:03.094Z,0.30
2018-10-04T23:02:30.845Z,0.20
2018-10-04T23:04:58.643Z,0.30
2018-10-04T23:07:26.361Z,0.10
2018-10-04T23:09:54.121Z,0.20
2018-10-04T23:12:21.907Z,0.17
2018-10-04T23:14:49.365Z,0.23
2018-10-04T23:17:16.801Z,0.10
2018-10-04T23:19:44.604Z,0.17
2018-10-04T23:22:12.067Z,0.20
2018-10-04T23:24:40.709Z,0.10
2018-10-04T23:27:08.411Z,0.17
2018-10-04T23:29:35.872Z,0.20
2018-10-04T23:32:03.342Z,0.30
2018-10-04T23:34:31.136Z,0.20
2018-10-04T23:36:58.634Z,0.10
2018-10-04T23:39:26.130Z,0.30
2018-10-04T23:41:53.887Z,0.20
2018-10-04T23:44:21.352Z,0.20
2018-10-04T23:46:48.906Z,0.33
2018-10-04T23:49:16.609Z,0.20
2018-10-04T23:51:44.106Z,0.10
2018-10-04T23:54:11.549Z,0.20
2018-10-04T23:56:39.235Z,0.20
2018-10-04T23:59:06.755Z,0.10
